Time;durP1;ratioP1;P1;durP2;ratioP2;P2;SDS_P1;SDS_P2;PMS_P1;PMS_P2;Temp;Humidity;BMP_temperature;BMP_pressure;BME280_temperature;BME280_humidity;BME280_pressure;Samples;Min_cycle;Max_cycle;Signal;HPM_P1;HPM_P2
2020/12/19 00:00:08;;;;;;;23.15;16.42;;;5.30;99.90;;;;;;5045185;28;20056;-72
2020/12/19 00:02:36;;;;;;;20.27;15.18;;;5.30;99.90;;;;;;5052605;28;20052;-72
2020/12/19 00:05:05;;;;;;;18.30;14.52;;;5.10;99.90;;;;;;5064073;28;20170;-72
2020/12/19 00:07:32;;;;;;;23.13;15.30;;;5.20;99.90;;;;;;5046808;28;20060;-72
2020/12/19 00:10:02;;;;;;;21.10;15.60;;;5.30;99.90;;;;;;5046681;28;20044;-72
2020/12/19 00:12:29;;;;;;;22.40;16.48;;;5.30;99.90;;;;;;5064455;28;20389;-72
2020/12/19 00:14:55;;;;;;;23.08;17.35;;;5.20;99.90;;;;;;5063985;28;20059;-72
2020/12/19 00:17:22;;;;;;;23.35;17.30;;;5.30;99.90;;;;;;5046276;28;20071;-72
2020/12/19 00:19:48;;;;;;;27.08;16.70;;;5.20;99.90;;;;;;5065090;28;20091;-72
2020/12/19 00:22:15;;;;;;;24.48;16.70;;;5.30;99.90;;;;;;5045716;28;20048;-72
2020/12/19 00:24:41;;;;;;;25.98;18.10;;;5.20;99.90;;;;;;5063497;28;20045;-72
2020/12/19 00:27:11;;;;;;;24.65;15.75;;;5.20;99.90;;;;;;5021292;28;20036;-73
2020/12/19 00:29:38;;;;;;;21.63;14.23;;;5.20;99.90;;;;;;5062803;28;20154;-72
2020/12/19 00:32:05;;;;;;;24.38;16.42;;;5.30;99.90;;;;;;5079615;28;20059;-72
2020/12/19 00:34:32;;;;;;;27.65;16.70;;;5.30;99.90;;;;;;5046213;28;20048;-72
2020/12/19 00:37:00;;;;;;;26.65;16.60;;;5.30;99.90;;;;;;5062586;28;20048;-72
2020/12/19 00:39:28;;;;;;;27.67;18.52;;;5.20;99.90;;;;;;5062659;28;20075;-73
2020/12/19 00:41:55;;;;;;;26.92;18.35;;;5.30;99.90;;;;;;5064186;28;20396;-72
2020/12/19 00:44:22;;;;;;;30.63;20.52;;;5.30;99.90;;;;;;5063234;28;20527;-72
2020/12/19 00:46:49;;;;;;;33.65;20.75;;;5.30;99.90;;;;;;5064013;28;20136;-73
2020/12/19 00:49:16;;;;;;;34.00;20.75;;;5.20;99.90;;;;;;5046094;28;20108;-72
2020/12/19 00:51:43;;;;;;;36.13;22.02;;;5.30;99.90;;;;;;5062189;28;20037;-72
2020/12/19 00:54:09;;;;;;;40.10;23.58;;;5.30;99.90;;;;;;5063200;28;20544;-73
2020/12/19 00:56:36;;;;;;;36.75;22.17;;;5.30;99.90;;;;;;5057638;28;20124;-72
2020/12/19 00:59:02;;;;;;;39.50;23.63;;;5.30;99.90;;;;;;5049692;28;20068;-73
2020/12/19 01:01:29;;;;;;;44.42;23.15;;;5.30;99.90;;;;;;5044825;28;20053;-73
2020/12/19 01:03:56;;;;;;;38.95;23.02;;;5.30;99.90;;;;;;5063900;28;20134;-73
2020/12/19 01:06:24;;;;;;;40.10;22.95;;;5.30;99.90;;;;;;5063737;28;20523;-71
2020/12/19 01:08:54;;;;;;;42.72;24.05;;;5.30;99.90;;;;;;5063087;28;20496;-74
2020/12/19 01:11:34;;;;;;;42.15;22.98;;;5.40;99.90;;;;;;5064158;28;20048;-73
2020/12/19 01:14:00;;;;;;;50.22;26.35;;;5.30;99.90;;;;;;5046086;28;20336;-74
2020/12/19 01:16:28;;;;;;;51.63;24.83;;;5.30;99.90;;;;;;5063947;28;20082;-73
2020/12/19 01:18:56;;;;;;;51.28;25.90;;;5.30;99.90;;;;;;5030081;28;20051;-73
2020/12/19 01:21:28;;;;;;;51.88;27.38;;;5.40;99.90;;;;;;5045404;28;20056;-73
2020/12/19 01:23:55;;;;;;;50.28;25.73;;;5.40;99.90;;;;;;5045747;28;20044;-73
2020/12/19 01:26:22;;;;;;;58.42;26.75;;;5.40;99.90;;;;;;5038524;28;20086;-74
2020/12/19 01:28:49;;;;;;;49.83;25.77;;;5.30;99.90;;;;;;5063055;28;20523;-72
2020/12/19 01:31:17;;;;;;;56.67;27.45;;;5.30;99.90;;;;;;5062652;28;20451;-73
2020/12/19 01:33:45;;;;;;;59.35;26.63;;;5.30;99.90;;;;;;5062188;28;20052;-73
2020/12/19 01:36:13;;;;;;;58.10;27.05;;;5.30;99.90;;;;;;5062156;28;20056;-73
2020/12/19 01:38:40;;;;;;;56.97;26.48;;;5.30;99.90;;;;;;5079895;28;20119;-73
2020/12/19 01:41:07;;;;;;;50.22;22.98;;;5.20;99.90;;;;;;5062480;28;20044;-73
2020/12/19 01:43:50;;;;;;;55.35;26.92;;;5.30;99.90;;;;;;5062880;28;20052;-74
2020/12/19 01:46:31;;;;;;;50.80;24.23;;;5.20;99.90;;;;;;5064014;28;20362;-73
2020/12/19 01:48:59;;;;;;;48.92;24.13;;;5.30;99.90;;;;;;5063275;28;20058;-73
2020/12/19 01:51:27;;;;;;;60.70;25.58;;;5.30;99.90;;;;;;5065392;28;20053;-74
2020/12/19 01:53:54;;;;;;;59.50;28.02;;;5.20;99.90;;;;;;5068231;28;20058;-71
2020/12/19 01:56:46;;;;;;;64.50;29.23;;;5.20;99.90;;;;;;5063095;28;20120;-72
2020/12/19 01:59:12;;;;;;;62.95;27.98;;;5.20;99.90;;;;;;5060506;28;20055;-71
2020/12/19 02:01:45;;;;;;;59.53;26.80;;;5.20;99.90;;;;;;5048402;28;20076;-72
2020/12/19 02:04:12;;;;;;;59.47;28.35;;;5.20;99.90;;;;;;5066290;28;20269;-72
2020/12/19 02:06:40;;;;;;;65.47;28.95;;;5.30;99.90;;;;;;5065791;28;20505;-74
2020/12/19 02:09:07;;;;;;;60.30;27.77;;;5.30;99.90;;;;;;5066254;28;20086;-71
2020/12/19 02:11:33;;;;;;;66.57;30.05;;;5.30;99.90;;;;;;5066333;28;20040;-72
2020/12/19 02:14:00;;;;;;;62.95;29.30;;;5.30;99.90;;;;;;5049332;28;20083;-72
2020/12/19 02:16:26;;;;;;;58.75;27.80;;;5.30;99.90;;;;;;5048553;28;20083;-72
2020/12/19 02:18:52;;;;;;;65.22;30.20;;;5.30;99.90;;;;;;5049651;28;20052;-72
2020/12/19 02:21:19;;;;;;;61.83;28.80;;;5.30;99.90;;;;;;5049095;28;20047;-72
2020/12/19 02:23:45;;;;;;;51.72;24.63;;;5.30;99.90;;;;;;5065741;28;20048;-71
2020/12/19 02:26:12;;;;;;;61.90;28.67;;;5.30;99.90;;;;;;5062851;28;20088;-73
2020/12/19 02:28:39;;;;;;;61.47;27.83;;;5.30;99.90;;;;;;5064613;28;20052;-73
2020/12/19 02:31:05;;;;;;;70.03;30.85;;;5.30;99.90;;;;;;5047765;28;20127;-71
2020/12/19 02:33:31;;;;;;;67.85;28.75;;;5.40;99.90;;;;;;5048905;28;20052;-74
2020/12/19 02:36:06;;;;;;;72.70;28.83;;;5.30;99.90;;;;;;5074091;28;20127;-74
2020/12/19 02:38:32;;;;;;;77.18;32.30;;;5.30;99.90;;;;;;5056973;28;20044;-71
2020/12/19 02:40:59;;;;;;;79.32;31.33;;;5.20;99.90;;;;;;5046813;28;20049;-74
2020/12/19 02:43:25;;;;;;;75.95;29.70;;;5.30;99.90;;;;;;5058145;28;20048;-74
2020/12/19 02:45:51;;;;;;;68.90;28.45;;;5.20;99.90;;;;;;5047993;28;20066;-71
2020/12/19 02:48:18;;;;;;;70.18;30.20;;;5.20;99.90;;;;;;5049178;28;20135;-74
2020/12/19 02:50:44;;;;;;;72.78;28.20;;;5.20;99.90;;;;;;5047663;28;20044;-74
2020/12/19 02:53:11;;;;;;;60.92;24.52;;;5.20;99.90;;;;;;5064597;28;20158;-74
2020/12/19 02:55:38;;;;;;;60.70;24.10;;;5.10;99.90;;;;;;5044385;28;20052;-71
2020/12/19 02:58:04;;;;;;;82.43;28.85;;;5.10;99.90;;;;;;5034489;28;20041;-72
2020/12/19 03:00:31;;;;;;;63.83;24.40;;;5.10;99.90;;;;;;5052626;28;20057;-71
2020/12/19 03:02:57;;;;;;;74.75;27.70;;;5.00;99.90;;;;;;5043942;28;20200;-74
2020/12/19 03:05:23;;;;;;;63.67;25.52;;;5.00;99.90;;;;;;5027465;28;20052;-72
2020/12/19 03:07:50;;;;;;;72.18;26.83;;;5.00;99.90;;;;;;5057470;28;20128;-71
2020/12/19 03:10:16;;;;;;;78.50;28.45;;;4.90;99.90;;;;;;5064318;28;20056;-72
2020/12/19 03:12:42;;;;;;;66.88;26.23;;;4.90;99.90;;;;;;5031487;28;20044;-73
2020/12/19 03:15:09;;;;;;;61.83;23.67;;;4.90;99.90;;;;;;5063891;28;20041;-71
2020/12/19 03:17:35;;;;;;;77.35;27.08;;;4.90;99.90;;;;;;5064757;28;20048;-72
2020/12/19 03:20:02;;;;;;;89.38;28.73;;;4.90;99.90;;;;;;5065502;28;20049;-71
2020/12/19 03:22:28;;;;;;;66.90;23.85;;;4.90;99.90;;;;;;5063868;28;20048;-71
2020/12/19 03:24:55;;;;;;;62.13;24.67;;;4.90;99.90;;;;;;5048057;28;20055;-71
2020/12/19 03:27:21;;;;;;;76.20;28.83;;;4.90;99.90;;;;;;5056742;28;20505;-71
2020/12/19 03:29:47;;;;;;;67.68;27.55;;;4.90;99.90;;;;;;5064606;28;20048;-74
2020/12/19 03:32:14;;;;;;;69.13;25.98;;;4.90;99.90;;;;;;5063880;28;20450;-71
2020/12/19 03:34:40;;;;;;;65.15;26.58;;;4.90;99.90;;;;;;5046942;28;20068;-71
2020/12/19 03:37:06;;;;;;;75.13;30.42;;;4.90;99.90;;;;;;5062852;28;20060;-72
2020/12/19 03:39:32;;;;;;;74.47;28.20;;;4.90;99.90;;;;;;5064366;28;20727;-71
2020/12/19 03:41:59;;;;;;;68.47;29.80;;;4.90;99.90;;;;;;5064906;28;20497;-71
2020/12/19 03:44:25;;;;;;;48.08;20.92;;;4.90;99.90;;;;;;5065826;28;20056;-71
2020/12/19 03:46:52;;;;;;;66.80;29.30;;;4.90;99.90;;;;;;5064889;28;20045;-72
2020/12/19 03:49:18;;;;;;;62.45;26.80;;;5.00;99.90;;;;;;5063947;28;20054;-71
2020/12/19 03:51:44;;;;;;;67.13;29.17;;;5.00;99.90;;;;;;5062521;28;20078;-71
2020/12/19 03:54:10;;;;;;;63.10;27.00;;;4.90;99.90;;;;;;5064241;28;20051;-71
2020/12/19 03:56:36;;;;;;;58.13;23.52;;;4.90;99.90;;;;;;5045990;28;20662;-71
2020/12/19 03:59:03;;;;;;;63.75;28.42;;;4.90;99.90;;;;;;5064248;28;20167;-72
2020/12/19 04:01:29;;;;;;;76.13;29.73;;;5.00;99.90;;;;;;5079896;28;20045;-72
2020/12/19 04:03:55;;;;;;;69.22;28.30;;;5.00;99.90;;;;;;5063616;28;20070;-72
2020/12/19 04:06:22;;;;;;;60.60;27.35;;;5.00;99.90;;;;;;5030157;28;20048;-71
2020/12/19 04:08:48;;;;;;;69.68;31.85;;;4.90;99.90;;;;;;5031520;28;20055;-72
2020/12/19 04:11:15;;;;;;;69.80;31.58;;;5.00;99.90;;;;;;5046317;28;20458;-72
2020/12/19 04:13:42;;;;;;;72.28;31.73;;;5.00;99.90;;;;;;5063062;28;20056;-71
2020/12/19 04:16:08;;;;;;;58.65;27.13;;;5.00;99.90;;;;;;5062399;28;20059;-71
2020/12/19 04:18:34;;;;;;;67.72;30.30;;;5.00;99.90;;;;;;5063695;28;20048;-72
2020/12/19 04:21:00;;;;;;;73.25;31.27;;;5.00;99.90;;;;;;5070428;28;20054;-72
2020/12/19 04:23:27;;;;;;;71.47;30.15;;;5.00;99.90;;;;;;5075895;28;20040;-70
2020/12/19 04:25:53;;;;;;;67.60;29.77;;;5.00;99.90;;;;;;5054758;28;20060;-71
2020/12/19 04:28:19;;;;;;;67.97;30.65;;;5.10;99.90;;;;;;5062345;28;20053;-70
2020/12/19 04:30:45;;;;;;;67.60;30.60;;;5.10;99.90;;;;;;5063745;28;20660;-73
2020/12/19 04:33:12;;;;;;;73.78;32.17;;;5.00;99.90;;;;;;5062438;28;20056;-71
2020/12/19 04:35:38;;;;;;;68.28;31.42;;;5.10;99.90;;;;;;5061962;28;20036;-71
2020/12/19 04:38:04;;;;;;;66.85;30.92;;;5.10;99.90;;;;;;5061641;28;20117;-71
2020/12/19 04:40:31;;;;;;;63.67;32.13;;;5.00;99.90;;;;;;5029742;28;20106;-71
2020/12/19 04:42:57;;;;;;;71.68;33.13;;;5.10;99.90;;;;;;5063428;28;20135;-71
2020/12/19 04:45:24;;;;;;;70.97;32.67;;;5.10;99.90;;;;;;5045866;28;20667;-71
2020/12/19 04:47:50;;;;;;;68.60;29.50;;;5.10;99.90;;;;;;5026142;28;20071;-72
2020/12/19 04:50:18;;;;;;;70.90;34.50;;;5.00;99.90;;;;;;5052982;28;20056;-71
2020/12/19 04:52:44;;;;;;;73.72;32.72;;;5.00;99.90;;;;;;5046266;28;20053;-71
2020/12/19 04:55:10;;;;;;;68.07;31.90;;;5.00;99.90;;;;;;5058412;28;20492;-72
2020/12/19 04:57:37;;;;;;;71.15;32.83;;;4.90;99.90;;;;;;5048120;28;20068;-72
2020/12/19 05:00:05;;;;;;;58.72;26.27;;;4.90;99.90;;;;;;5042942;28;20071;-71
2020/12/19 05:02:31;;;;;;;59.40;28.15;;;4.90;99.90;;;;;;5044966;28;20536;-73
2020/12/19 05:05:05;;;;;;;61.85;30.00;;;4.90;99.90;;;;;;5063054;28;20513;-73
2020/12/19 05:07:38;;;;;;;67.55;29.85;;;4.90;99.90;;;;;;5058900;28;20095;-71
2020/12/19 05:10:05;;;;;;;59.05;29.63;;;4.90;99.90;;;;;;5045851;28;20371;-73
2020/12/19 05:12:32;;;;;;;66.10;30.58;;;4.90;99.90;;;;;;5060054;28;20049;-74
2020/12/19 05:14:58;;;;;;;66.47;29.23;;;4.90;99.90;;;;;;5042973;28;20053;-71
2020/12/19 05:17:25;;;;;;;67.70;31.30;;;4.90;99.90;;;;;;5046212;28;20048;-73
2020/12/19 05:19:55;;;;;;;49.13;27.05;;;4.90;99.90;;;;;;5062994;28;20147;-71
2020/12/19 05:22:24;;;;;;;64.82;31.17;;;4.90;99.90;;;;;;5045111;28;20049;-73
2020/12/19 05:24:52;;;;;;;64.35;31.20;;;4.90;99.90;;;;;;5063589;28;20131;-71
2020/12/19 05:27:18;;;;;;;61.53;31.40;;;4.90;99.90;;;;;;5057638;28;20082;-72
2020/12/19 05:29:45;;;;;;;67.47;32.22;;;4.90;99.90;;;;;;5049007;28;20055;-72
2020/12/19 05:32:12;;;;;;;59.80;32.10;;;4.90;99.90;;;;;;5066450;28;20048;-72
2020/12/19 05:34:38;;;;;;;63.85;31.30;;;4.90;99.90;;;;;;5049601;28;20044;-72
2020/12/19 05:37:05;;;;;;;63.97;32.72;;;4.90;99.90;;;;;;5066881;28;20048;-72
2020/12/19 05:39:31;;;;;;;54.85;29.40;;;4.90;99.90;;;;;;5066909;28;20109;-72
2020/12/19 05:41:58;;;;;;;59.50;29.55;;;4.90;99.90;;;;;;5049027;28;20040;-73
2020/12/19 05:44:24;;;;;;;55.88;29.35;;;4.90;99.90;;;;;;5066434;28;20116;-72
2020/12/19 05:46:51;;;;;;;51.00;27.20;;;4.90;99.90;;;;;;5049542;28;20140;-73
2020/12/19 05:49:17;;;;;;;44.00;24.42;;;4.90;99.90;;;;;;5065823;28;20540;-73
2020/12/19 05:51:44;;;;;;;47.67;25.52;;;4.90;99.90;;;;;;5065461;28;20110;-73
2020/12/19 05:54:14;;;;;;;49.85;25.15;;;5.00;99.90;;;;;;5066644;28;20052;-73
2020/12/19 05:56:45;;;;;;;45.00;26.63;;;5.00;99.90;;;;;;5050254;28;20052;-73
2020/12/19 05:59:13;;;;;;;51.22;28.63;;;5.10;99.90;;;;;;5054283;28;20531;-72
2020/12/19 06:01:48;;;;;;;45.28;26.27;;;5.00;99.90;;;;;;5028509;28;20053;-72
2020/12/19 06:04:16;;;;;;;45.55;26.60;;;5.10;99.90;;;;;;5029652;28;20056;-72
2020/12/19 06:06:47;;;;;;;41.15;24.15;;;5.10;99.90;;;;;;5015252;28;20502;-73
2020/12/19 06:09:15;;;;;;;47.22;27.40;;;5.10;99.90;;;;;;5019306;28;20154;-73
2020/12/19 06:11:56;;;;;;;47.90;27.88;;;5.20;99.90;;;;;;5058314;28;20516;-72
2020/12/19 06:14:25;;;;;;;50.33;28.58;;;5.20;99.90;;;;;;5066124;28;20063;-72
2020/12/19 06:17:04;;;;;;;46.45;27.90;;;5.10;99.90;;;;;;5066122;28;20037;-73
2020/12/19 06:19:33;;;;;;;48.05;26.58;;;5.10;99.90;;;;;;5065364;28;20045;-72
2020/12/19 06:22:00;;;;;;;49.88;27.90;;;5.20;99.90;;;;;;5065258;28;20308;-72
2020/12/19 06:24:48;;;;;;;46.33;26.50;;;5.10;99.90;;;;;;5065501;28;20060;-72
2020/12/19 06:27:22;;;;;;;56.22;29.73;;;5.10;99.90;;;;;;5057685;28;20088;-73
2020/12/19 06:29:53;;;;;;;51.17;30.20;;;5.20;99.90;;;;;;5048349;28;20053;-73
2020/12/19 06:32:20;;;;;;;51.45;30.15;;;5.20;99.90;;;;;;5048655;28;20040;-72
2020/12/19 06:34:57;;;;;;;51.15;29.67;;;5.20;99.90;;;;;;5065653;28;20063;-73
2020/12/19 06:37:29;;;;;;;53.63;28.60;;;5.20;99.90;;;;;;5080418;28;20083;-73
2020/12/19 06:40:16;;;;;;;51.10;28.20;;;5.10;99.90;;;;;;5063931;28;20063;-72
2020/12/19 06:42:48;;;;;;;47.15;26.75;;;5.20;99.90;;;;;;5075081;28;20099;-72
2020/12/19 06:45:35;;;;;;;54.97;28.98;;;5.20;99.90;;;;;;5051937;28;20072;-73
2020/12/19 06:48:01;;;;;;;47.03;25.83;;;5.20;99.90;;;;;;5064431;28;20052;-72
2020/12/19 06:51:02;;;;;;;47.28;28.75;;;5.20;99.90;;;;;;5064884;28;20055;-73
2020/12/19 06:53:30;;;;;;;48.45;28.02;;;5.20;99.90;;;;;;5031201;28;20748;-73
2020/12/19 06:55:57;;;;;;;48.22;28.13;;;5.20;99.90;;;;;;5055474;28;20401;-72
2020/12/19 06:58:33;;;;;;;50.60;29.52;;;5.20;99.90;;;;;;5028652;28;20061;-72
2020/12/19 07:01:21;;;;;;;40.28;24.30;;;5.20;99.90;;;;;;5043658;28;20111;-72
2020/12/19 07:03:48;;;;;;;33.85;19.98;;;5.30;99.90;;;;;;5034360;28;20518;-72
2020/12/19 07:06:15;;;;;;;43.75;24.88;;;5.30;99.90;;;;;;5064505;28;20036;-72
2020/12/19 07:08:50;;;;;;;43.85;24.90;;;5.30;99.90;;;;;;5063471;28;20041;-72
2020/12/19 07:11:33;;;;;;;45.30;26.30;;;5.40;99.90;;;;;;5064509;28;20489;-72
2020/12/19 07:13:59;;;;;;;45.22;27.90;;;5.40;99.90;;;;;;5064237;28;20169;-72
2020/12/19 07:16:52;;;;;;;39.17;24.92;;;5.50;99.90;;;;;;5062353;28;20246;-73
2020/12/19 07:19:26;;;;;;;43.38;21.55;;;5.50;99.90;;;;;;5047510;28;20055;-73
2020/12/19 07:21:57;;;;;;;46.63;25.25;;;5.40;99.90;;;;;;5062608;28;20528;-73
2020/12/19 07:24:24;;;;;;;42.45;25.17;;;5.50;99.90;;;;;;5046685;28;20047;-73
2020/12/19 07:26:52;;;;;;;40.78;21.77;;;5.50;99.90;;;;;;5021928;28;20669;-73
2020/12/19 07:29:20;;;;;;;39.47;23.02;;;5.40;99.90;;;;;;5056024;28;20049;-72
2020/12/19 07:31:51;;;;;;;40.53;23.73;;;5.50;99.90;;;;;;5043204;28;20087;-72
2020/12/19 07:34:19;;;;;;;40.10;23.77;;;5.50;99.90;;;;;;5027516;28;20044;-72
2020/12/19 07:36:50;;;;;;;32.78;18.80;;;5.50;99.90;;;;;;5041625;28;20080;-72
2020/12/19 07:39:18;;;;;;;36.33;22.05;;;5.50;99.90;;;;;;5032572;28;20141;-72
2020/12/19 07:41:47;;;;;;;38.65;22.38;;;5.50;99.90;;;;;;5054599;28;20044;-71
2020/12/19 07:44:20;;;;;;;42.13;23.83;;;5.50;99.90;;;;;;5064847;28;20059;-72
2020/12/19 07:46:52;;;;;;;40.05;21.50;;;5.40;99.90;;;;;;5062903;28;20055;-72
2020/12/19 07:49:34;;;;;;;39.85;24.13;;;5.40;99.90;;;;;;5062632;28;20048;-72
2020/12/19 07:52:09;;;;;;;44.85;26.30;;;5.40;99.90;;;;;;5062031;28;20045;-72
2020/12/19 07:54:37;;;;;;;29.60;18.85;;;5.40;99.90;;;;;;5046433;28;20497;-72
2020/12/19 07:57:07;;;;;;;42.22;25.23;;;5.40;99.90;;;;;;5053770;28;20044;-73
2020/12/19 07:59:34;;;;;;;42.35;26.00;;;5.40;99.90;;;;;;5044586;28;20063;-72
2020/12/19 08:02:03;;;;;;;37.70;24.27;;;5.40;99.90;;;;;;5039151;28;20049;-72
2020/12/19 08:04:33;;;;;;;36.55;24.25;;;5.50;99.90;;;;;;5045294;28;20578;-72
2020/12/19 08:07:00;;;;;;;37.50;23.80;;;5.60;99.90;;;;;;5043397;28;20127;-72
2020/12/19 08:09:31;;;;;;;39.50;23.90;;;5.50;99.90;;;;;;5062630;28;20044;-72
2020/12/19 08:12:01;;;;;;;39.15;24.42;;;5.50;99.90;;;;;;5062972;28;20056;-72
2020/12/19 08:14:28;;;;;;;37.00;23.60;;;5.50;99.90;;;;;;5063286;28;20052;-72
2020/12/19 08:16:55;;;;;;;35.15;23.00;;;5.60;99.90;;;;;;5062857;28;20056;-72
2020/12/19 08:19:32;;;;;;;40.65;26.48;;;5.60;99.90;;;;;;5046873;28;20569;-72
2020/12/19 08:22:02;;;;;;;35.10;23.35;;;5.50;99.90;;;;;;5062871;28;20055;-71
2020/12/19 08:24:28;;;;;;;39.83;25.70;;;5.50;99.90;;;;;;5063452;28;20050;-72
2020/12/19 08:27:27;;;;;;;39.50;24.13;;;5.50;99.90;;;;;;5055099;28;20064;-72
2020/12/19 08:30:21;;;;;;;33.35;24.02;;;5.60;99.90;;;;;;5044081;28;20041;-72
2020/12/19 08:32:50;;;;;;;32.67;21.17;;;5.60;99.90;;;;;;5035217;28;20045;-72
2020/12/19 08:35:28;;;;;;;32.30;21.90;;;5.60;99.90;;;;;;5038103;28;20513;-72
2020/12/19 08:38:01;;;;;;;29.10;20.40;;;5.70;99.90;;;;;;5064196;28;20651;-72
2020/12/19 08:40:33;;;;;;;30.98;21.67;;;5.70;99.90;;;;;;5063402;28;20052;-71
2020/12/19 08:42:59;;;;;;;30.98;20.65;;;5.70;99.90;;;;;;5063263;28;20060;-72
2020/12/19 08:45:28;;;;;;;33.03;21.15;;;5.80;99.90;;;;;;5062261;28;20048;-72
2020/12/19 08:48:00;;;;;;;29.42;21.33;;;5.80;99.90;;;;;;5063092;28;20493;-72
2020/12/19 08:50:30;;;;;;;27.63;20.90;;;5.90;99.90;;;;;;5045874;28;20054;-72
2020/12/19 08:53:04;;;;;;;29.83;21.95;;;5.90;99.90;;;;;;5036874;28;20148;-72
2020/12/19 08:55:31;;;;;;;30.93;22.60;;;5.90;99.90;;;;;;5046836;28;20070;-72
2020/12/19 08:57:57;;;;;;;30.58;22.77;;;6.00;99.90;;;;;;5042181;28;20053;-71
2020/12/19 09:00:24;;;;;;;27.05;20.95;;;6.00;99.90;;;;;;5039989;28;20059;-72
2020/12/19 09:02:51;;;;;;;29.00;20.42;;;6.10;99.90;;;;;;5065956;28;20062;-73
2020/12/19 09:05:31;;;;;;;27.73;21.45;;;6.10;99.90;;;;;;5066012;28;20048;-72
2020/12/19 09:07:58;;;;;;;27.83;22.15;;;6.20;99.90;;;;;;5050193;28;20486;-72
2020/12/19 09:10:27;;;;;;;26.13;21.58;;;6.30;99.90;;;;;;5060874;28;20469;-72
2020/12/19 09:13:19;;;;;;;26.38;21.00;;;6.40;99.90;;;;;;5059753;28;20053;-72
2020/12/19 09:15:46;;;;;;;25.80;20.77;;;6.60;99.90;;;;;;5067089;28;20536;-73
2020/12/19 09:18:31;;;;;;;22.77;19.60;;;6.70;99.90;;;;;;5040296;28;20056;-72
2020/12/19 09:21:00;;;;;;;26.88;21.75;;;6.70;99.90;;;;;;5062730;28;20059;-72
2020/12/19 09:23:27;;;;;;;22.63;20.17;;;6.80;99.90;;;;;;5065357;28;20112;-72
2020/12/19 09:25:56;;;;;;;22.40;20.00;;;6.80;99.90;;;;;;5064793;28;20045;-72
2020/12/19 09:28:23;;;;;;;24.77;20.65;;;6.90;99.90;;;;;;5043686;28;20044;-72
2020/12/19 09:30:54;;;;;;;26.77;21.75;;;6.90;99.90;;;;;;5059507;28;20057;-72
2020/12/19 09:33:20;;;;;;;24.13;20.83;;;7.00;99.90;;;;;;5063098;28;20424;-73
2020/12/19 09:35:48;;;;;;;24.92;22.30;;;7.00;99.90;;;;;;5059069;28;20040;-74
2020/12/19 09:38:15;;;;;;;25.35;21.75;;;7.00;99.90;;;;;;5065690;28;20060;-71
2020/12/19 09:40:41;;;;;;;26.63;21.73;;;7.10;99.90;;;;;;5064549;28;20547;-71
2020/12/19 09:43:07;;;;;;;23.25;20.40;;;7.10;99.90;;;;;;5064084;28;20048;-73
2020/12/19 09:45:34;;;;;;;28.38;22.83;;;7.10;99.90;;;;;;5064455;28;20045;-72
2020/12/19 09:48:01;;;;;;;26.95;21.55;;;7.10;99.90;;;;;;5065102;28;20222;-71
2020/12/19 09:50:28;;;;;;;23.13;20.10;;;7.10;99.90;;;;;;5044777;28;20712;-72
2020/12/19 09:52:55;;;;;;;22.88;20.52;;;7.30;99.90;;;;;;5053998;28;20049;-72
2020/12/19 09:55:22;;;;;;;24.42;20.30;;;7.30;99.90;;;;;;5031162;28;20066;-72
2020/12/19 09:57:49;;;;;;;20.73;17.73;;;7.40;99.90;;;;;;5048384;28;20124;-72
2020/12/19 10:00:17;;;;;;;21.60;19.40;;;7.50;99.90;;;;;;5064190;28;20060;-73
2020/12/19 10:02:46;;;;;;;23.40;18.33;;;7.60;99.90;;;;;;5065838;28;20063;-72
2020/12/19 10:05:13;;;;;;;19.27;17.38;;;7.70;99.90;;;;;;5056553;28;20186;-72
2020/12/19 10:07:39;;;;;;;21.02;18.42;;;7.80;99.90;;;;;;5047160;28;20045;-72
2020/12/19 10:10:07;;;;;;;21.80;19.55;;;7.90;99.90;;;;;;5063780;28;20056;-73
2020/12/19 10:12:34;;;;;;;22.98;17.30;;;7.90;99.90;;;;;;5041250;28;20045;-73
2020/12/19 10:15:02;;;;;;;21.40;16.63;;;7.90;99.90;;;;;;5055935;28;20059;-72
2020/12/19 10:17:29;;;;;;;20.05;17.65;;;8.00;99.90;;;;;;5047553;28;20444;-72
2020/12/19 10:19:55;;;;;;;20.38;18.20;;;8.00;99.90;;;;;;5048008;28;20690;-71
2020/12/19 10:22:21;;;;;;;18.80;16.77;;;8.10;99.90;;;;;;5063598;28;20055;-72
2020/12/19 10:24:48;;;;;;;19.98;17.85;;;8.20;99.90;;;;;;5064100;28;20083;-72
2020/12/19 10:27:15;;;;;;;20.17;17.25;;;8.20;99.90;;;;;;5058643;28;20198;-72
2020/12/19 10:29:41;;;;;;;20.92;18.10;;;8.30;99.90;;;;;;5052280;28;20059;-72
2020/12/19 10:32:09;;;;;;;18.92;16.67;;;8.20;99.90;;;;;;5028277;28;20033;-72
2020/12/19 10:34:37;;;;;;;22.40;20.02;;;8.20;99.90;;;;;;5039122;28;20050;-72
2020/12/19 10:37:03;;;;;;;22.98;19.92;;;8.00;99.90;;;;;;5062706;28;20044;-73
2020/12/19 10:39:30;;;;;;;22.90;19.40;;;7.90;99.90;;;;;;5048223;28;20041;-72
2020/12/19 10:41:56;;;;;;;21.52;18.83;;;8.00;99.90;;;;;;5054431;28;20059;-72
2020/12/19 10:44:23;;;;;;;23.35;20.27;;;8.10;99.90;;;;;;5047170;28;20049;-72
2020/12/19 10:46:49;;;;;;;19.95;17.77;;;8.10;99.90;;;;;;5062657;28;20505;-73
2020/12/19 10:49:16;;;;;;;20.35;18.35;;;8.20;99.90;;;;;;5047152;28;20517;-72
2020/12/19 10:51:42;;;;;;;23.35;18.80;;;8.20;99.90;;;;;;5065031;28;20493;-72
2020/12/19 10:54:09;;;;;;;22.85;20.40;;;8.20;99.90;;;;;;5044961;28;20607;-72
2020/12/19 10:56:35;;;;;;;19.77;17.85;;;8.40;99.90;;;;;;5057245;28;20045;-72
2020/12/19 10:59:01;;;;;;;18.40;16.55;;;8.50;99.90;;;;;;5047019;28;20059;-72
2020/12/19 11:01:27;;;;;;;19.88;17.95;;;8.40;99.90;;;;;;5063348;28;20059;-72
2020/12/19 11:03:54;;;;;;;19.35;17.10;;;8.20;99.90;;;;;;5040021;28;20049;-72
2020/12/19 11:06:24;;;;;;;23.33;19.33;;;8.20;99.90;;;;;;5045473;28;20139;-72
2020/12/19 11:08:52;;;;;;;19.45;17.60;;;8.30;99.90;;;;;;5046894;28;20135;-73
2020/12/19 11:11:26;;;;;;;21.58;18.75;;;8.30;99.90;;;;;;5064513;28;20052;-72
2020/12/19 11:13:52;;;;;;;20.30;18.20;;;8.20;99.90;;;;;;5063157;28;20055;-72
2020/12/19 11:16:26;;;;;;;23.90;19.83;;;8.30;99.90;;;;;;5062427;28;20052;-72
2020/12/19 11:18:53;;;;;;;21.33;19.02;;;8.30;99.90;;;;;;5064982;28;20497;-72
2020/12/19 11:21:20;;;;;;;21.17;18.98;;;8.30;99.90;;;;;;5046141;28;20128;-72
2020/12/19 11:23:48;;;;;;;17.48;15.88;;;8.30;99.90;;;;;;5063879;28;20063;-73
2020/12/19 11:26:18;;;;;;;19.60;17.55;;;8.30;99.90;;;;;;5045488;28;20102;-72
2020/12/19 11:28:48;;;;;;;20.20;17.83;;;8.20;99.90;;;;;;5056921;28;20045;-72
2020/12/19 11:31:15;;;;;;;20.20;17.02;;;8.20;99.90;;;;;;5029861;28;20473;-72
2020/12/19 11:33:42;;;;;;;18.55;16.83;;;8.30;99.90;;;;;;5059420;28;20053;-73
2020/12/19 11:36:14;;;;;;;19.40;17.48;;;8.30;99.90;;;;;;5044751;28;20254;-72
2020/12/19 11:38:40;;;;;;;18.25;16.42;;;8.40;99.90;;;;;;5063077;28;20339;-72
2020/12/19 11:41:06;;;;;;;19.38;17.20;;;8.40;99.90;;;;;;5063126;28;20048;-72
2020/12/19 11:43:33;;;;;;;20.17;18.08;;;8.40;99.90;;;;;;5063195;28;20052;-72
2020/12/19 11:45:59;;;;;;;21.65;17.33;;;8.30;99.90;;;;;;5045426;28;20539;-72
2020/12/19 11:48:26;;;;;;;17.92;16.05;;;8.40;99.90;;;;;;5046107;28;20135;-72
2020/12/19 11:50:52;;;;;;;18.75;16.90;;;8.40;99.90;;;;;;5045920;28;20044;-72
2020/12/19 11:53:18;;;;;;;17.35;15.68;;;8.40;99.90;;;;;;5063354;28;20049;-72
2020/12/19 11:55:44;;;;;;;19.58;17.60;;;8.40;99.90;;;;;;5059530;28;20127;-72
2020/12/19 11:58:11;;;;;;;20.15;18.08;;;8.40;99.90;;;;;;5062937;28;20129;-72
2020/12/19 12:00:37;;;;;;;20.52;18.52;;;8.40;99.90;;;;;;5045660;28;20452;-72
2020/12/19 12:03:07;;;;;;;20.30;18.20;;;8.40;99.90;;;;;;5061285;28;20037;-72
2020/12/19 12:05:34;;;;;;;19.95;17.95;;;8.40;99.90;;;;;;5060925;28;20044;-72
2020/12/19 12:08:00;;;;;;;21.75;19.35;;;8.50;99.90;;;;;;5079189;28;20568;-72
2020/12/19 12:10:27;;;;;;;18.98;17.10;;;8.50;99.90;;;;;;5044751;28;20416;-72
2020/12/19 12:12:53;;;;;;;19.67;17.63;;;8.60;99.90;;;;;;5038867;28;20055;-72
2020/12/19 12:15:19;;;;;;;20.27;17.73;;;8.50;99.90;;;;;;5054832;28;20053;-72
2020/12/19 12:17:46;;;;;;;20.40;17.33;;;8.50;99.90;;;;;;5031009;28;20621;-73
2020/12/19 12:20:15;;;;;;;20.63;18.60;;;8.50;99.90;;;;;;5028056;28;20067;-73
2020/12/19 12:22:41;;;;;;;20.10;18.10;;;8.50;99.90;;;;;;5063253;28;20129;-73
2020/12/19 12:25:08;;;;;;;17.25;15.55;;;8.50;99.90;;;;;;5060929;28;20040;-73
2020/12/19 12:27:34;;;;;;;17.90;16.23;;;8.50;99.90;;;;;;5028221;28;20051;-73
2020/12/19 12:30:03;;;;;;;18.75;16.90;;;8.40;99.90;;;;;;5078436;28;20064;-73
2020/12/19 12:32:29;;;;;;;19.88;17.83;;;8.40;99.90;;;;;;5060382;28;20037;-72
2020/12/19 12:34:55;;;;;;;17.42;15.80;;;8.50;99.90;;;;;;5035554;28;20094;-72
2020/12/19 12:37:22;;;;;;;17.77;16.27;;;8.50;99.90;;;;;;5062787;28;20162;-72
2020/12/19 12:39:48;;;;;;;20.13;17.45;;;8.60;99.90;;;;;;5045233;28;20079;-72
2020/12/19 12:42:23;;;;;;;19.67;17.13;;;8.60;99.90;;;;;;5044432;28;20044;-72